createdAt,value
2019-01-12T00:01:12.403Z,1.63
2019-01-12T00:04:15.908Z,1.52
2019-01-12T00:07:19.346Z,1.63
2019-01-12T00:10:22.765Z,1.59
2019-01-12T00:13:26.389Z,1.62
2019-01-12T00:16:29.778Z,1.69
2019-01-12T00:19:33.161Z,1.67
2019-01-12T00:22:36.623Z,1.63
2019-01-12T00:25:39.990Z,1.66
2019-01-12T00:28:43.424Z,1.65
2019-01-12T00:31:46.805Z,1.65
2019-01-12T00:34:50.157Z,1.62
2019-01-12T00:37:53.627Z,1.62
2019-01-12T00:40:56.994Z,1.63
2019-01-12T00:44:00.394Z,1.64
2019-01-12T00:47:03.837Z,1.64
2019-01-12T00:50:09.228Z,1.63
2019-01-12T00:53:12.677Z,1.62
2019-01-12T00:56:16.070Z,1.68
2019-01-12T00:59:19.414Z,1.65
2019-01-12T01:02:22.881Z,1.70
2019-01-12T01:05:26.280Z,1.72
2019-01-12T01:08:29.681Z,1.63
2019-01-12T01:11:33.139Z,1.65
2019-01-12T01:14:36.596Z,1.65
2019-01-12T01:17:40.058Z,1.66
2019-01-12T01:20:43.501Z,1.64
2019-01-12T01:23:46.897Z,1.76
2019-01-12T01:26:50.361Z,1.69
2019-01-12T01:29:53.916Z,1.71
2019-01-12T01:32:57.457Z,1.67
2019-01-12T01:36:00.859Z,1.63
2019-01-12T01:39:06.622Z,1.69
2019-01-12T01:42:10.065Z,1.70
2019-01-12T01:45:14.100Z,1.72
2019-01-12T01:48:17.531Z,1.75
2019-01-12T01:51:20.979Z,1.81
2019-01-12T01:54:24.339Z,1.79
2019-01-12T01:57:27.858Z,1.72
2019-01-12T02:00:31.282Z,1.78
2019-01-12T02:03:34.676Z,1.84
2019-01-12T02:06:38.051Z,1.75
2019-01-12T02:09:41.490Z,1.81
2019-01-12T02:12:44.988Z,1.80
2019-01-12T02:15:48.346Z,1.82
2019-01-12T02:18:51.766Z,1.77
2019-01-12T02:21:55.156Z,1.77
2019-01-12T02:25:00.142Z,1.80
2019-01-12T02:28:02.283Z,1.75
2019-01-12T02:31:05.770Z,1.74
2019-01-12T02:34:09.222Z,1.78
2019-01-12T02:37:12.686Z,1.74
2019-01-12T02:40:16.201Z,1.74
2019-01-12T02:43:19.569Z,1.76
2019-01-12T02:46:22.969Z,1.75
2019-01-12T02:49:26.379Z,1.75
2019-01-12T02:52:29.825Z,1.78
2019-01-12T02:55:33.271Z,1.71
2019-01-12T02:58:36.704Z,1.79
2019-01-12T03:01:40.147Z,1.84
2019-01-12T03:04:43.614Z,1.79
2019-01-12T03:07:47.040Z,1.82
2019-01-12T03:10:50.513Z,1.77
2019-01-12T03:13:53.901Z,1.78
2019-01-12T03:16:57.354Z,1.79
2019-01-12T03:20:00.895Z,1.92
2019-01-12T03:23:04.463Z,1.95
2019-01-12T03:26:07.926Z,1.94
2019-01-12T03:29:11.403Z,1.88
2019-01-12T03:32:14.764Z,1.88
2019-01-12T03:35:18.197Z,1.87
2019-01-12T03:38:21.632Z,1.85
2019-01-12T03:41:25.006Z,1.89
2019-01-12T03:44:28.442Z,1.92
2019-01-12T03:47:31.906Z,1.91
2019-01-12T03:50:35.286Z,1.87
2019-01-12T03:53:38.692Z,1.88
2019-01-12T03:56:42.125Z,1.98
2019-01-12T03:59:45.551Z,1.97
2019-01-12T04:02:48.922Z,1.87
2019-01-12T04:05:52.423Z,1.90
2019-01-12T04:08:55.811Z,1.88
2019-01-12T04:11:59.168Z,1.96
2019-01-12T04:15:02.625Z,1.91
2019-01-12T04:18:06.046Z,1.88
2019-01-12T04:21:09.404Z,1.89
2019-01-12T04:24:12.822Z,1.93
2019-01-12T04:27:16.221Z,2.10
2019-01-12T04:30:19.274Z,1.97
2019-01-12T04:33:22.720Z,2.01
2019-01-12T04:36:26.106Z,1.97
2019-01-12T04:39:29.553Z,1.98
2019-01-12T04:42:32.907Z,2.02
2019-01-12T04:45:36.338Z,2.02
2019-01-12T04:48:39.700Z,1.98
2019-01-12T04:51:43.173Z,1.99
2019-01-12T04:54:46.673Z,1.98
2019-01-12T04:57:50.190Z,2.01
2019-01-12T05:00:53.657Z,2.06
2019-01-12T05:03:57.088Z,1.92
2019-01-12T05:07:00.565Z,1.95
2019-01-12T05:10:04.164Z,2.03
2019-01-12T05:13:07.587Z,2.04
2019-01-12T05:16:11.166Z,1.96
2019-01-12T05:19:14.677Z,2.01
2019-01-12T05:22:18.109Z,1.93
2019-01-12T05:25:21.637Z,1.96
2019-01-12T05:28:25.119Z,1.97
2019-01-12T05:31:28.614Z,2.00
2019-01-12T05:34:32.108Z,2.00
2019-01-12T05:37:35.622Z,2.02
2019-01-12T05:40:39.171Z,2.04
2019-01-12T05:43:42.839Z,2.09
2019-01-12T05:46:46.468Z,2.11
2019-01-12T05:49:49.931Z,2.13
2019-01-12T05:52:53.615Z,2.10
2019-01-12T05:55:59.164Z,2.15
2019-01-12T05:59:00.945Z,2.23
2019-01-12T06:02:04.588Z,2.18
2019-01-12T06:05:08.197Z,2.18
2019-01-12T06:08:15.665Z,2.21
2019-01-12T06:11:19.320Z,2.21
2019-01-12T06:14:22.901Z,2.20
2019-01-12T06:17:26.548Z,2.26
2019-01-12T06:20:30.378Z,2.28
2019-01-12T06:23:33.907Z,2.28
2019-01-12T06:26:37.560Z,2.32
2019-01-12T06:29:40.998Z,2.28
2019-01-12T06:32:45.480Z,2.24
2019-01-12T06:35:49.126Z,2.31
2019-01-12T06:38:56.163Z,2.28
2019-01-12T06:41:59.586Z,2.26
2019-01-12T06:45:03.065Z,2.30
2019-01-12T06:48:06.497Z,2.38
2019-01-12T06:51:10.922Z,2.34
2019-01-12T06:54:14.410Z,2.28
2019-01-12T06:57:17.887Z,2.24
2019-01-12T07:00:21.370Z,2.35
2019-01-12T07:03:24.852Z,2.33
2019-01-12T07:06:28.226Z,2.32
2019-01-12T07:09:31.674Z,2.30
2019-01-12T07:12:35.197Z,2.32
2019-01-12T07:15:38.746Z,2.32
2019-01-12T07:18:42.126Z,2.32
2019-01-12T07:21:45.631Z,2.33
2019-01-12T07:24:49.040Z,2.32
2019-01-12T07:27:52.538Z,2.33
2019-01-12T07:30:56.016Z,2.31
2019-01-12T07:33:59.515Z,2.33
2019-01-12T07:37:03.098Z,2.51
2019-01-12T07:40:06.889Z,2.47
2019-01-12T07:43:10.296Z,2.46
2019-01-12T07:46:13.776Z,2.51
2019-01-12T07:49:17.134Z,2.56
2019-01-12T07:52:20.564Z,2.51
2019-01-12T07:55:24.177Z,2.61
2019-01-12T07:58:27.579Z,2.58
2019-01-12T08:01:33.075Z,2.59
2019-01-12T08:04:36.556Z,2.64
2019-01-12T08:07:40.022Z,2.74
2019-01-12T08:10:43.740Z,2.73
2019-01-12T08:13:47.213Z,2.84
2019-01-12T08:16:50.613Z,2.80
2019-01-12T08:19:54.091Z,2.84
2019-01-12T08:22:57.601Z,2.84
2019-01-12T08:26:01.138Z,2.80
2019-01-12T08:29:04.649Z,2.84
2019-01-12T08:32:08.149Z,2.91
2019-01-12T08:35:11.636Z,2.86
2019-01-12T08:38:15.318Z,2.92
2019-01-12T08:41:22.657Z,2.90
2019-01-12T08:44:26.455Z,2.99
2019-01-12T08:47:30.051Z,2.93
2019-01-12T08:50:33.496Z,3.00
2019-01-12T08:53:36.957Z,3.01
2019-01-12T08:56:40.433Z,2.97
2019-01-12T08:59:43.932Z,2.99
2019-01-12T09:02:47.470Z,2.99
2019-01-12T09:05:51.048Z,3.00
2019-01-12T09:08:54.771Z,3.00
2019-01-12T09:11:58.402Z,3.03
2019-01-12T09:15:03.087Z,3.15
2019-01-12T09:18:06.635Z,3.10
2019-01-12T09:21:10.259Z,3.08
2019-01-12T09:24:13.941Z,3.02
2019-01-12T09:27:17.445Z,3.01
2019-01-12T09:30:22.074Z,3.10
2019-01-12T09:33:25.648Z,3.03
2019-01-12T09:39:59.590Z,3.22
2019-01-12T09:46:36.679Z,3.26
2019-01-12T09:49:40.195Z,3.27
2019-01-12T09:52:45.422Z,3.34
2019-01-12T09:55:48.899Z,3.43
2019-01-12T09:58:57.660Z,3.44
2019-01-12T10:02:02.931Z,3.42
2019-01-12T10:08:40.242Z,3.59
2019-01-12T10:11:43.698Z,3.58
2019-01-12T10:14:48.228Z,3.59
2019-01-12T10:17:55.268Z,3.56
2019-01-12T10:21:00.089Z,3.51
2019-01-12T10:24:04.346Z,3.47
2019-01-12T10:27:11.954Z,3.50
2019-01-12T10:30:20.490Z,3.55
2019-01-12T10:33:26.087Z,3.57
2019-01-12T10:36:29.499Z,3.59
2019-01-12T10:39:33.829Z,3.54
2019-01-12T10:42:38.707Z,3.54
2019-01-12T10:45:43.374Z,3.61
2019-01-12T10:48:47.084Z,3.59
2019-01-12T10:51:51.612Z,3.57
2019-01-12T10:54:56.188Z,3.58
2019-01-12T10:58:00.485Z,3.63
2019-01-12T11:01:04.188Z,3.67
2019-01-12T11:04:09.058Z,3.66
2019-01-12T11:07:18.242Z,3.71
2019-01-12T11:10:21.662Z,3.68
2019-01-12T11:13:25.166Z,3.65
2019-01-12T11:16:28.685Z,3.71
2019-01-12T11:19:32.237Z,3.72
2019-01-12T11:22:35.805Z,3.70
2019-01-12T11:25:43.057Z,3.76
2019-01-12T11:28:43.196Z,3.84
2019-01-12T11:31:47.430Z,3.84
2019-01-12T11:34:51.027Z,3.76
2019-01-12T11:37:54.732Z,3.75
2019-01-12T11:40:58.466Z,3.73
2019-01-12T11:44:02.088Z,3.76
2019-01-12T11:47:05.799Z,3.74
2019-01-12T11:50:12.059Z,3.71
2019-01-12T11:53:15.576Z,3.69
2019-01-12T11:56:20.211Z,3.83
2019-01-12T11:59:23.979Z,3.77
2019-01-12T12:02:27.602Z,3.77
2019-01-12T12:05:31.417Z,3.78
2019-01-12T12:08:35.207Z,3.81
2019-01-12T12:11:38.905Z,3.82
2019-01-12T12:14:42.522Z,3.86
2019-01-12T12:17:46.971Z,3.94
2019-01-12T12:20:50.569Z,3.97
2019-01-12T12:23:54.031Z,3.94
2019-01-12T12:26:57.561Z,3.95
2019-01-12T12:30:01.112Z,4.02
2019-01-12T12:33:04.587Z,3.99
2019-01-12T12:36:08.109Z,3.98
2019-01-12T12:39:11.699Z,4.11
2019-01-12T12:42:15.330Z,3.99
2019-01-12T12:45:21.212Z,4.11
2019-01-12T12:48:25.596Z,4.05
2019-01-12T12:51:29.095Z,4.06
2019-01-12T12:54:32.605Z,4.08
2019-01-12T12:57:36.114Z,4.04
2019-01-12T13:00:39.716Z,4.04
2019-01-12T13:03:43.384Z,4.02
2019-01-12T13:06:46.880Z,4.04
2019-01-12T13:09:50.584Z,4.09
2019-01-12T13:12:54.174Z,4.13
2019-01-12T13:15:57.740Z,4.15
2019-01-12T13:19:06.784Z,4.18
2019-01-12T13:22:10.218Z,4.16
2019-01-12T13:25:13.783Z,4.18
2019-01-12T13:28:17.305Z,4.16
2019-01-12T13:31:20.826Z,4.21
2019-01-12T13:34:24.350Z,4.20
2019-01-12T13:37:27.844Z,4.12
2019-01-12T13:40:31.300Z,4.15
2019-01-12T13:43:34.788Z,4.13
2019-01-12T13:46:38.260Z,4.15
2019-01-12T13:49:41.711Z,4.10
2019-01-12T13:52:45.266Z,4.11
2019-01-12T13:55:48.736Z,4.18
2019-01-12T13:58:52.182Z,4.20
2019-01-12T14:01:55.724Z,4.31
2019-01-12T14:04:59.195Z,4.31
2019-01-12T14:08:02.730Z,4.30
2019-01-12T14:11:06.226Z,4.30
2019-01-12T14:14:09.680Z,4.32
2019-01-12T14:17:13.278Z,4.29
2019-01-12T14:20:20.291Z,4.28
2019-01-12T14:23:23.808Z,4.24
2019-01-12T14:26:27.363Z,4.24
2019-01-12T14:29:30.914Z,4.33
2019-01-12T14:32:34.506Z,4.23
2019-01-12T14:35:38.186Z,4.28
2019-01-12T14:38:41.754Z,4.34
2019-01-12T14:41:45.321Z,4.26
2019-01-12T14:44:49.414Z,4.31
2019-01-12T14:47:52.883Z,4.29
2019-01-12T14:50:58.747Z,4.34
2019-01-12T14:54:02.297Z,4.31
2019-01-12T14:57:05.796Z,4.26
2019-01-12T15:00:14.025Z,4.40
2019-01-12T15:03:17.628Z,4.40
2019-01-12T15:06:21.278Z,4.46
2019-01-12T15:09:24.905Z,4.40
2019-01-12T15:12:28.366Z,4.37
2019-01-12T15:15:31.954Z,4.39
2019-01-12T15:18:35.611Z,4.39
2019-01-12T15:21:39.213Z,4.35
2019-01-12T15:24:42.733Z,4.39
2019-01-12T15:27:46.312Z,4.41
2019-01-12T15:30:50.026Z,4.49
2019-01-12T15:33:53.585Z,4.64
2019-01-12T15:36:57.167Z,4.66
2019-01-12T15:40:00.753Z,4.62
2019-01-12T15:43:04.367Z,4.64
2019-01-12T15:46:07.990Z,4.58
2019-01-12T15:49:11.486Z,4.64
2019-01-12T15:52:15.065Z,4.60
2019-01-12T15:55:18.603Z,4.49
2019-01-12T15:58:22.108Z,4.49
2019-01-12T16:01:25.716Z,4.50
2019-01-12T16:04:29.311Z,4.45
2019-01-12T16:07:32.830Z,4.40
2019-01-12T16:10:36.398Z,4.40
2019-01-12T16:13:39.833Z,4.43
2019-01-12T16:16:43.458Z,4.39
2019-01-12T16:19:47.115Z,4.44
2019-01-12T16:22:50.895Z,4.40
2019-01-12T16:25:54.519Z,4.34
2019-01-12T16:28:58.070Z,4.33
2019-01-12T16:32:01.670Z,4.33
2019-01-12T16:35:05.486Z,4.30
2019-01-12T16:38:09.158Z,4.40
2019-01-12T16:41:12.635Z,4.40
2019-01-12T16:44:16.086Z,4.38
2019-01-12T16:47:19.554Z,4.41
2019-01-12T16:50:23.055Z,4.47
2019-01-12T16:53:26.554Z,4.39
2019-01-12T16:56:30.123Z,4.46
2019-01-12T16:59:34.583Z,4.41
2019-01-12T17:02:38.234Z,4.42
2019-01-12T17:05:41.790Z,4.40
2019-01-12T17:08:45.251Z,4.41
2019-01-12T17:11:48.756Z,4.40
2019-01-12T17:14:52.165Z,4.35
2019-01-12T17:17:55.692Z,4.34
2019-01-12T17:20:59.275Z,4.35
2019-01-12T17:24:02.875Z,4.40
2019-01-12T17:27:07.562Z,4.38
2019-01-12T17:30:14.202Z,4.34
2019-01-12T17:33:17.874Z,4.36
2019-01-12T17:36:21.590Z,4.36
2019-01-12T17:39:25.050Z,4.36
2019-01-12T17:42:29.587Z,4.37
2019-01-12T17:45:33.103Z,4.39
2019-01-12T17:48:36.635Z,4.34
2019-01-12T17:51:40.124Z,4.29
2019-01-12T17:54:43.694Z,4.32
2019-01-12T17:57:47.222Z,4.36
2019-01-12T18:00:51.655Z,4.35
2019-01-12T18:03:55.174Z,4.42
2019-01-12T18:06:58.810Z,4.37
2019-01-12T18:10:02.440Z,4.26
2019-01-12T18:13:06.141Z,4.27
2019-01-12T18:16:09.574Z,4.27
2019-01-12T18:19:13.024Z,4.24
2019-01-12T18:22:16.549Z,4.30
2019-01-12T18:25:20.020Z,4.37
2019-01-12T18:28:23.782Z,4.43
2019-01-12T18:31:27.290Z,4.30
2019-01-12T18:34:30.745Z,4.27
2019-01-12T18:37:34.260Z,4.33
2019-01-12T18:40:37.865Z,4.32
2019-01-12T18:43:41.449Z,4.34
2019-01-12T18:46:45.022Z,4.25
2019-01-12T18:49:48.465Z,4.32
2019-01-12T18:52:52.192Z,4.34
2019-01-12T18:55:55.683Z,4.30
2019-01-12T18:58:59.270Z,4.33
2019-01-12T19:02:02.632Z,4.29
2019-01-12T19:05:06.322Z,4.28
2019-01-12T19:08:09.772Z,4.30
2019-01-12T19:11:16.096Z,4.34
2019-01-12T19:14:19.620Z,4.32
2019-01-12T19:17:23.196Z,4.32
2019-01-12T19:20:26.853Z,4.28
2019-01-12T19:23:30.376Z,4.28
2019-01-12T19:26:33.906Z,4.30
2019-01-12T19:29:37.477Z,4.30
2019-01-12T19:32:41.071Z,4.37
2019-01-12T19:35:44.710Z,4.37
2019-01-12T19:38:48.408Z,4.32
2019-01-12T19:41:54.057Z,4.43
2019-01-12T19:44:57.662Z,4.33
2019-01-12T19:48:01.324Z,4.32
2019-01-12T19:51:04.922Z,4.30
2019-01-12T19:54:08.513Z,4.31
2019-01-12T19:57:12.047Z,4.29
2019-01-12T20:00:17.412Z,4.31
2019-01-12T20:03:20.951Z,4.29
2019-01-12T20:06:24.529Z,4.32
2019-01-12T20:09:28.023Z,4.34
2019-01-12T20:12:31.611Z,4.33
2019-01-12T20:15:35.254Z,4.34
2019-01-12T20:18:38.840Z,4.34
2019-01-12T20:21:42.310Z,4.36
2019-01-12T20:24:45.920Z,4.40
2019-01-12T20:27:49.487Z,4.37
2019-01-12T20:31:26.489Z,4.40
2019-01-12T20:34:34.402Z,4.36
2019-01-12T20:38:05.223Z,4.38
2019-01-12T20:41:23.372Z,4.41
2019-01-12T20:44:51.631Z,4.41
2019-01-12T20:48:10.034Z,4.38
2019-01-12T20:51:33.309Z,4.36
2019-01-12T20:54:53.277Z,4.46
2019-01-12T20:58:12.470Z,4.41
2019-01-12T21:01:28.855Z,4.47
2019-01-12T21:05:01.223Z,4.49
2019-01-12T21:08:13.685Z,4.53
2019-01-12T21:11:49.264Z,4.53
2019-01-12T21:14:58.043Z,4.59
2019-01-12T21:18:01.610Z,4.53
2019-01-12T21:21:05.087Z,4.59
2019-01-12T21:24:10.292Z,4.58
2019-01-12T21:27:13.880Z,4.60
2019-01-12T21:30:17.678Z,4.57
2019-01-12T21:33:21.266Z,4.55
2019-01-12T21:36:25.635Z,4.62
2019-01-12T21:39:30.456Z,4.66
2019-01-12T21:42:34.552Z,4.62
2019-01-12T21:45:39.133Z,4.65
2019-01-12T21:48:42.775Z,4.61
2019-01-12T21:51:46.313Z,4.64
2019-01-12T21:54:50.139Z,4.63
2019-01-12T21:57:53.684Z,4.69
2019-01-12T22:00:57.289Z,4.69
2019-01-12T22:04:00.841Z,4.65
2019-01-12T22:07:04.449Z,4.66
2019-01-12T22:10:18.836Z,4.71
2019-01-12T22:13:15.433Z,4.68
2019-01-12T22:16:19.041Z,4.74
2019-01-12T22:19:22.489Z,4.69
2019-01-12T22:22:26.025Z,4.70
2019-01-12T22:25:31.900Z,4.69
2019-01-12T22:28:36.060Z,4.68
2019-01-12T22:31:39.496Z,4.65
2019-01-12T22:34:44.548Z,4.69
2019-01-12T22:37:50.549Z,4.73
2019-01-12T22:40:54.033Z,4.77
2019-01-12T22:44:00.380Z,4.77
2019-01-12T22:47:04.182Z,4.82
2019-01-12T22:50:09.182Z,4.78
2019-01-12T22:53:13.834Z,4.83
2019-01-12T22:56:17.354Z,4.79
2019-01-12T22:59:21.853Z,4.82
2019-01-12T23:02:25.476Z,4.86
2019-01-12T23:05:29.202Z,4.80
2019-01-12T23:08:32.725Z,4.83
2019-01-12T23:11:36.921Z,4.88
2019-01-12T23:14:40.415Z,4.85
2019-01-12T23:17:44.156Z,4.85
2019-01-12T23:20:48.198Z,4.88
2019-01-12T23:23:51.877Z,4.85
2019-01-12T23:26:55.401Z,4.80
2019-01-12T23:30:04.726Z,4.85
2019-01-12T23:33:04.747Z,4.81
2019-01-12T23:39:44.282Z,4.91
2019-01-12T23:42:47.884Z,5.03
2019-01-12T23:45:51.579Z,4.92
2019-01-12T23:48:56.066Z,4.94
2019-01-12T23:51:58.979Z,4.95
2019-01-12T23:55:02.602Z,4.96
2019-01-12T23:58:06.212Z,4.97
